Time;durP1;ratioP1;P1;durP2;ratioP2;P2;SDS_P1;SDS_P2;PMS_P1;PMS_P2;Temp;Humidity;BMP_temperature;BMP_pressure;BME280_temperature;BME280_humidity;BME280_pressure;Samples;Min_cycle;Max_cycle;Signal;HPM_P1;HPM_P2
2021/12/14 00:02:10;;;;;;;26.00;14.20;;;;;;;7.63;93.01;102685.25;5038841;28;20084;-77
2021/12/14 00:04:36;;;;;;;26.67;14.15;;;;;;;7.63;93.15;102681.75;5044573;28;20032;-77
2021/12/14 00:07:06;;;;;;;26.33;13.70;;;;;;;7.62;93.36;102683.47;5050191;28;20342;-77
2021/12/14 00:09:36;;;;;;;26.92;13.70;;;;;;;7.62;93.64;102678.28;5044268;28;20040;-77
2021/12/14 00:17:29;;;;;;;28.02;13.90;;;;;;;7.61;93.38;102666.09;5048165;28;20096;-76
2021/12/14 00:19:59;;;;;;;26.73;13.70;;;;;;;7.62;93.66;102669.59;5044261;28;20080;-77
2021/12/14 00:24:50;;;;;;;29.33;12.57;;;;;;;7.61;93.75;102688.53;5043363;28;20080;-77
2021/12/14 00:27:22;;;;;;;26.25;12.98;;;;;;;7.61;93.69;102691.13;5045724;28;20053;-77
2021/12/14 00:29:51;;;;;;;26.40;13.57;;;;;;;7.60;93.66;102677.28;5043996;28;20084;-77
2021/12/14 00:32:20;;;;;;;29.88;13.32;;;;;;;7.60;93.40;102679.88;5044037;28;20025;-77
2021/12/14 00:34:47;;;;;;;27.85;13.88;;;;;;;7.61;93.93;102689.44;5044105;28;20100;-76
2021/12/14 00:37:15;;;;;;;29.55;14.00;;;;;;;7.61;93.92;102688.53;5046395;28;20093;-76
2021/12/14 00:39:41;;;;;;;25.65;13.40;;;;;;;7.60;93.84;102691.94;5044346;28;20272;-76
2021/12/14 00:42:07;;;;;;;26.30;13.00;;;;;;;7.61;93.93;102698.94;5042805;28;20209;-77
2021/12/14 00:44:33;;;;;;;25.83;12.80;;;;;;;7.59;93.89;102701.41;5043659;28;20346;-77
2021/12/14 00:46:59;;;;;;;27.75;13.45;;;;;;;7.60;94.07;102712.69;5040898;28;20067;-77
2021/12/14 00:49:25;;;;;;;28.60;13.68;;;;;;;7.59;93.95;102721.25;5047549;28;20037;-77
2021/12/14 00:51:51;;;;;;;30.23;13.93;;;;;;;7.58;93.86;102707.41;5043337;28;20056;-77
2021/12/14 00:54:17;;;;;;;26.05;12.05;;;;;;;7.58;94.05;102720.38;5043203;28;20260;-77
2021/12/14 00:56:43;;;;;;;28.35;13.05;;;;;;;7.58;94.29;102727.25;5043195;28;20119;-77
2021/12/14 00:59:12;;;;;;;27.92;12.23;;;;;;;7.58;94.24;102733.34;5043096;28;20029;-77
2021/12/14 01:01:42;;;;;;;29.95;12.98;;;;;;;7.58;94.04;102727.25;5043278;28;20285;-77
2021/12/14 01:04:13;;;;;;;28.65;13.23;;;;;;;7.55;94.06;102729.66;5050710;28;20088;-77
2021/12/14 01:06:44;;;;;;;25.95;12.68;;;;;;;7.55;94.16;102725.34;5044287;28;20089;-76
2021/12/14 01:09:13;;;;;;;27.52;13.32;;;;;;;7.56;94.21;102716.78;5045478;28;20037;-77
2021/12/14 01:11:43;;;;;;;28.90;13.07;;;;;;;7.55;94.34;102711.50;5043478;28;20049;-77
2021/12/14 01:14:40;;;;;;;25.40;12.15;;;;;;;7.54;94.22;102707.09;5043022;28;20025;-77
2021/12/14 01:17:14;;;;;;;26.67;12.57;;;;;;;7.53;94.61;102703.63;5031940;28;20095;-77
2021/12/14 01:19:44;;;;;;;25.55;12.80;;;;;;;7.53;94.43;102713.06;5049967;28;20056;-77
2021/12/14 01:27:32;;;;;;;28.13;12.95;;;;;;;7.55;94.42;102711.50;5039894;28;20029;-77
2021/12/14 01:30:01;;;;;;;31.60;13.75;;;;;;;7.54;94.09;102697.59;5044232;28;20157;-77
2021/12/14 01:32:29;;;;;;;31.10;13.45;;;;;;;7.53;94.18;102694.91;5042761;28;20017;-77
2021/12/14 01:34:55;;;;;;;32.08;14.13;;;;;;;7.51;94.23;102683.56;5042550;28;20033;-77
2021/12/14 01:37:24;;;;;;;27.25;12.38;;;;;;;7.51;94.45;102692.22;5042885;28;20336;-77
2021/12/14 01:42:27;;;;;;;27.05;12.52;;;;;;;7.51;94.10;102688.75;5048823;28;19924;-77
2021/12/14 01:44:55;;;;;;;30.50;13.05;;;;;;;7.50;94.07;102682.63;5042379;28;20098;-77
2021/12/14 01:47:29;;;;;;;28.70;12.77;;;;;;;7.49;94.33;102683.47;5042412;28;20119;-77
2021/12/14 01:49:55;;;;;;;28.23;13.20;;;;;;;7.48;94.22;102684.25;5040806;28;20025;-77
2021/12/14 01:52:30;;;;;;;27.80;13.13;;;;;;;7.48;94.27;102692.03;5076600;28;20072;-77
2021/12/14 01:55:01;;;;;;;28.25;12.98;;;;;;;7.47;94.20;102691.13;5042095;28;20096;-77
2021/12/14 01:57:29;;;;;;;24.70;11.75;;;;;;;7.46;94.03;102678.97;5042399;28;20044;-77
2021/12/14 01:59:58;;;;;;;27.95;12.13;;;;;;;7.46;94.04;102678.97;5046519;28;20036;-77
2021/12/14 02:02:33;;;;;;;29.05;12.98;;;;;;;7.45;93.81;102660.69;5043619;28;20032;-77
2021/12/14 02:05:03;;;;;;;24.65;11.35;;;;;;;7.45;93.82;102666.78;5037661;28;20030;-77
2021/12/14 02:07:30;;;;;;;22.40;10.80;;;;;;;7.43;93.87;102668.38;5074201;28;20087;-77
2021/12/14 02:10:04;;;;;;;29.10;11.63;;;;;;;7.43;93.79;102652.81;5042285;28;20033;-77
2021/12/14 02:12:31;;;;;;;22.92;10.45;;;;;;;7.43;93.64;102639.84;5044760;28;20251;-77
2021/12/14 02:15:34;;;;;;;24.80;10.88;;;;;;;7.44;93.66;102640.75;5044836;28;20029;-77
2021/12/14 02:18:04;;;;;;;22.80;9.70;;;;;;;7.41;93.16;102654.41;5042131;28;20036;-77
2021/12/14 02:20:33;;;;;;;22.58;9.43;;;;;;;7.40;93.23;102652.63;5042009;28;20033;-77
2021/12/14 02:23:00;;;;;;;21.60;9.30;;;;;;;7.38;93.54;102656.78;5072981;28;20246;-77
2021/12/14 02:25:26;;;;;;;20.00;8.93;;;;;;;7.38;93.32;102664.56;5040353;28;20284;-77
2021/12/14 02:27:54;;;;;;;18.98;8.52;;;;;;;7.38;92.78;102661.97;5045075;28;20026;-77
2021/12/14 02:30:25;;;;;;;19.35;8.48;;;;;;;7.38;92.65;102655.91;5040417;28;20064;-77
2021/12/14 02:32:51;;;;;;;19.15;8.88;;;;;;;7.38;92.88;102655.91;5049524;28;20041;-77
2021/12/14 02:35:21;;;;;;;18.40;8.32;;;;;;;7.38;92.68;102661.09;5042064;28;20041;-77
2021/12/14 02:38:00;;;;;;;19.23;8.75;;;;;;;7.38;92.86;102668.88;5041931;28;20029;-77
2021/12/14 02:40:53;;;;;;;19.57;8.20;;;;;;;7.35;92.62;102664.38;5035730;28;20101;-77
2021/12/14 02:43:18;;;;;;;18.88;8.02;;;;;;;7.36;92.54;102675.63;5041347;28;20037;-76
2021/12/14 02:45:44;;;;;;;20.45;8.25;;;;;;;7.35;92.75;102669.56;5041257;28;20054;-77
2021/12/14 02:48:10;;;;;;;18.13;7.93;;;;;;;7.34;92.46;102678.13;5041148;28;20037;-77
2021/12/14 02:50:37;;;;;;;20.27;8.27;;;;;;;7.33;92.77;102663.41;5041442;28;20276;-77
2021/12/14 02:53:04;;;;;;;20.33;8.35;;;;;;;7.32;92.60;102672.84;5043055;28;20063;-77
2021/12/14 02:55:29;;;;;;;18.95;8.20;;;;;;;7.33;92.75;102660.81;5045819;28;20290;-77
2021/12/14 02:57:59;;;;;;;21.50;8.60;;;;;;;7.32;92.63;102654.69;5041730;28;20109;-77
2021/12/14 03:00:35;;;;;;;;;;;;;;;7.37;92.79;102657.63;5040779;28;20360;-77
2021/12/14 03:03:07;;;;;;;18.17;7.25;;;;;;;7.32;92.44;102643.44;5042370;28;20136;-77
2021/12/14 03:05:35;;;;;;;20.00;7.60;;;;;;;7.33;92.66;102645.25;5041015;28;20111;-77
2021/12/14 03:08:08;;;;;;;19.48;8.15;;;;;;;7.29;92.75;102651.91;5041571;28;20037;-77
2021/12/14 03:10:51;;;;;;;16.88;7.18;;;;;;;7.28;92.61;102646.63;5040590;28;20068;-77
2021/12/14 03:13:18;;;;;;;18.67;7.22;;;;;;;7.29;92.45;102635.47;5036869;28;20067;-77
2021/12/14 03:15:50;;;;;;;18.95;7.57;;;;;;;7.27;92.37;102630.19;5041767;28;20033;-77
2021/12/14 03:18:20;;;;;;;16.13;6.80;;;;;;;7.26;92.28;102627.47;5034730;28;20026;-77
2021/12/14 03:20:50;;;;;;;21.40;7.82;;;;;;;7.25;92.50;102625.69;5073371;28;20024;-77
2021/12/14 03:23:17;;;;;;;;;;;;;;;7.31;92.78;102614.03;5041130;28;20025;-77
2021/12/14 03:25:47;;;;;;;18.98;7.47;;;;;;;7.24;92.61;102611.84;5044104;28;20191;-76
2021/12/14 03:28:15;;;;;;;22.38;7.63;;;;;;;7.22;92.28;102612.53;5041455;28;20029;-77
2021/12/14 03:30:47;;;;;;;20.23;7.70;;;;;;;7.22;92.61;102626.38;5038636;28;20264;-77
2021/12/14 03:33:18;;;;;;;20.02;7.78;;;;;;;7.20;92.53;102620.19;5038566;28;20075;-77
2021/12/14 03:35:52;;;;;;;20.10;7.45;;;;;;;7.20;92.76;102625.38;5041091;28;20029;-77
2021/12/14 03:38:24;;;;;;;19.90;7.32;;;;;;;7.20;92.62;102616.69;5045533;28;20222;-77
2021/12/14 03:41:17;;;;;;;21.95;8.30;;;;;;;7.20;92.55;102607.22;5049450;28;20083;-77
2021/12/14 03:43:52;;;;;;;20.98;7.47;;;;;;;7.18;92.72;102610.50;5042025;28;20038;-77
2021/12/14 03:46:18;;;;;;;23.33;8.05;;;;;;;7.17;92.70;102612.22;5044797;28;20052;-77
2021/12/14 03:48:43;;;;;;;22.25;8.55;;;;;;;7.17;92.65;102620.00;5044577;28;20033;-76
2021/12/14 03:51:09;;;;;;;25.00;9.20;;;;;;;7.16;92.53;102631.16;5044937;28;20264;-77
2021/12/14 03:53:34;;;;;;;24.33;9.18;;;;;;;7.17;92.99;102639.81;5050749;28;20083;-77
2021/12/14 03:56:05;;;;;;;26.38;9.32;;;;;;;7.16;92.60;102651.00;5044900;28;20025;-77
2021/12/14 03:58:35;;;;;;;25.75;9.57;;;;;;;7.16;92.88;102661.38;5043568;28;20136;-77
2021/12/14 04:01:10;;;;;;;27.02;9.88;;;;;;;7.17;93.18;102665.75;5044756;28;20030;-76
2021/12/14 04:03:35;;;;;;;25.83;9.25;;;;;;;7.17;92.91;102673.53;5046101;28;20059;-77
2021/12/14 04:06:03;;;;;;;27.33;10.18;;;;;;;7.16;93.13;102675.22;5044684;28;20025;-77
2021/12/14 04:08:29;;;;;;;28.50;10.63;;;;;;;7.15;93.01;102676.00;5047651;28;20025;-76
2021/12/14 04:10:57;;;;;;;28.20;10.23;;;;;;;7.13;92.90;102675.91;5076684;28;20033;-77
2021/12/14 04:13:27;;;;;;;31.08;10.77;;;;;;;7.14;93.14;102677.72;5076468;28;20219;-77
2021/12/14 04:15:54;;;;;;;31.70;10.88;;;;;;;7.13;93.20;102673.31;5044332;28;20223;-77
2021/12/14 04:18:19;;;;;;;29.85;10.23;;;;;;;7.13;93.20;102672.44;5076442;28;20312;-76
2021/12/14 04:20:46;;;;;;;32.17;10.73;;;;;;;7.13;93.25;102657.75;5044043;28;20045;-77
2021/12/14 04:23:35;;;;;;;28.67;10.73;;;;;;;7.14;93.08;102658.69;5043408;28;20061;-77
2021/12/14 04:26:02;;;;;;;31.63;11.82;;;;;;;7.13;93.30;102668.13;5043822;28;20264;-77
2021/12/14 04:28:33;;;;;;;32.13;11.32;;;;;;;7.12;93.37;102665.44;5042178;28;20096;-77
2021/12/14 04:30:59;;;;;;;31.33;11.50;;;;;;;7.12;93.32;102668.91;5043019;28;20025;-77
2021/12/14 04:33:30;;;;;;;32.28;10.50;;;;;;;7.12;93.45;102666.31;5043976;28;20054;-77
2021/12/14 04:35:57;;;;;;;36.10;11.90;;;;;;;7.11;93.37;102659.38;5049210;28;20030;-77
2021/12/14 04:38:31;;;;;;;32.70;11.60;;;;;;;7.11;93.21;102651.59;5040619;28;20022;-77
2021/12/14 04:52:08;;;;;;;36.25;12.32;;;;;;;7.09;93.56;102647.97;5044268;28;20024;-77
2021/12/14 04:54:45;;;;;;;35.83;11.82;;;;;;;7.09;93.85;102642.78;5042072;28;20303;-77
2021/12/14 04:57:31;;;;;;;37.75;12.63;;;;;;;7.10;93.60;102642.00;5043703;28;20014;-77
2021/12/14 05:00:01;;;;;;;37.63;11.55;;;;;;;7.07;93.66;102636.63;5036534;28;20028;-77
2021/12/14 05:02:31;;;;;;;36.83;12.55;;;;;;;7.08;93.37;102648.81;5043365;28;20022;-77
2021/12/14 05:04:57;;;;;;;36.55;12.13;;;;;;;7.07;93.56;102636.63;5049481;28;20021;-77
2021/12/14 05:10:01;;;;;;;37.70;12.60;;;;;;;7.07;93.65;102641.81;5038392;28;20026;-77
2021/12/14 05:12:30;;;;;;;38.22;12.48;;;;;;;7.07;93.50;102640.94;5043207;28;20049;-77
2021/12/14 05:14:59;;;;;;;41.10;13.05;;;;;;;7.06;93.67;102634.81;5041819;28;20041;-77
2021/12/14 05:17:30;;;;;;;35.08;11.57;;;;;;;7.07;93.24;102630.56;5043150;28;20017;-77
2021/12/14 05:19:56;;;;;;;34.92;12.20;;;;;;;7.07;93.57;102634.03;5043690;28;20323;-76
2021/12/14 05:22:26;;;;;;;37.83;12.20;;;;;;;7.08;93.35;102621.97;5042552;28;20033;-76
2021/12/14 05:25:00;;;;;;;36.95;12.48;;;;;;;7.07;93.87;102631.44;5042491;28;20025;-77
2021/12/14 05:27:33;;;;;;;42.15;12.90;;;;;;;7.08;93.85;102632.31;5042791;28;20025;-76
2021/12/14 05:30:33;;;;;;;37.00;12.18;;;;;;;7.08;93.65;102635.84;5047814;28;20021;-77
2021/12/14 05:33:07;;;;;;;38.47;13.50;;;;;;;7.06;93.77;102634.81;5027004;28;20041;-77
2021/12/14 05:35:37;;;;;;;40.30;13.77;;;;;;;7.07;93.52;102638.34;5037784;28;20275;-76
2021/12/14 05:38:04;;;;;;;38.75;12.88;;;;;;;7.06;93.43;102632.22;5074790;28;20022;-77
2021/12/14 05:40:45;;;;;;;42.42;13.88;;;;;;;7.05;93.55;102627.84;5069726;28;20279;-77
2021/12/14 05:43:16;;;;;;;39.90;13.20;;;;;;;7.05;93.64;102627.84;5077519;28;20039;-76
2021/12/14 05:45:45;;;;;;;40.00;13.60;;;;;;;7.03;93.77;102631.13;5049442;28;20057;-76
2021/12/14 05:48:17;;;;;;;39.45;13.13;;;;;;;7.03;93.83;102634.63;5042931;28;20017;-77
2021/12/14 05:50:45;;;;;;;39.08;13.55;;;;;;;7.04;93.72;102643.28;5042525;28;20163;-77
2021/12/14 05:53:24;;;;;;;42.88;12.80;;;;;;;7.02;93.59;102635.41;5040651;28;20372;-77
2021/12/14 05:55:50;;;;;;;42.70;13.75;;;;;;;7.02;93.64;102643.19;5041972;28;20040;-77
2021/12/14 05:58:19;;;;;;;42.33;14.15;;;;;;;7.01;93.79;102632.72;5041047;28;20037;-77
2021/12/14 06:00:47;;;;;;;;;;;;;;;7.06;93.67;102634.81;5043114;28;20174;-77
2021/12/14 06:03:22;;;;;;;46.10;13.98;;;;;;;7.02;93.72;102653.53;5046616;28;19931;-77
2021/12/14 06:05:48;;;;;;;42.53;13.52;;;;;;;7.02;93.57;102656.13;5044921;28;20025;-76
2021/12/14 06:08:19;;;;;;;42.42;14.00;;;;;;;7.00;93.84;102655.16;5040767;28;20021;-76
2021/12/14 06:10:45;;;;;;;45.00;14.60;;;;;;;7.01;93.82;102658.63;5074649;28;20187;-77
2021/12/14 06:13:10;;;;;;;46.20;14.20;;;;;;;7.01;93.81;102662.16;5041744;28;20032;-76
2021/12/14 06:15:36;;;;;;;46.10;14.55;;;;;;;7.00;93.60;102668.09;5074651;28;20029;-76
2021/12/14 06:18:02;;;;;;;44.17;14.32;;;;;;;7.00;93.56;102675.88;5042603;28;20084;-77
2021/12/14 06:20:28;;;;;;;45.78;14.95;;;;;;;7.01;93.87;102677.69;5073964;28;20260;-77
2021/12/14 06:22:54;;;;;;;46.88;14.43;;;;;;;7.01;93.86;102674.19;5072974;28;20172;-77
2021/12/14 06:25:24;;;;;;;50.40;16.83;;;;;;;7.01;93.55;102672.50;5041745;28;20065;-77
2021/12/14 06:27:50;;;;;;;50.15;15.85;;;;;;;7.00;93.94;102675.88;5040871;28;20025;-77
2021/12/14 06:30:25;;;;;;;47.20;15.00;;;;;;;7.00;93.80;102672.41;5073842;28;20284;-77
2021/12/14 06:33:01;;;;;;;49.88;15.00;;;;;;;7.00;93.75;102675.88;5041266;28;20029;-77
2021/12/14 06:35:32;;;;;;;49.03;15.82;;;;;;;6.99;93.77;102668.91;5074262;28;20029;-77
2021/12/14 06:38:31;;;;;;;58.30;16.85;;;;;;;7.01;93.70;102671.59;5041568;28;20024;-77
2021/12/14 06:41:10;;;;;;;54.60;16.55;;;;;;;6.99;94.04;102671.50;5022493;28;20045;-77
2021/12/14 06:43:38;;;;;;;49.65;14.82;;;;;;;6.99;94.03;102666.31;5041085;28;20036;-77
2021/12/14 06:46:07;;;;;;;51.42;16.58;;;;;;;6.99;94.25;102684.44;5044002;28;20084;-77
2021/12/14 06:48:38;;;;;;;55.10;16.98;;;;;;;7.00;93.55;102677.59;5041556;28;20100;-77
2021/12/14 06:51:08;;;;;;;54.55;16.15;;;;;;;6.99;93.99;102689.63;5041667;28;20032;-77
2021/12/14 06:53:35;;;;;;;52.63;16.15;;;;;;;6.99;93.73;102694.81;5041698;28;20119;-77
2021/12/14 06:56:05;;;;;;;56.30;16.92;;;;;;;6.99;93.93;102688.75;5041709;28;20184;-77
2021/12/14 06:58:34;;;;;;;55.08;17.58;;;;;;;6.99;93.97;102689.63;5041785;28;20029;-77
2021/12/14 07:01:14;;;;;;;;;;;;;;;7.05;93.56;102695.22;5044630;28;20017;-77
2021/12/14 07:03:42;;;;;;;52.13;15.90;;;;;;;7.00;93.85;102693.13;5042925;28;19915;-77
2021/12/14 07:06:12;;;;;;;53.38;17.10;;;;;;;6.99;93.91;102699.13;5041341;28;20272;-77
2021/12/14 07:08:37;;;;;;;52.78;17.58;;;;;;;6.98;93.89;102700.81;5041818;28;20024;-77
2021/12/14 07:11:03;;;;;;;56.95;17.55;;;;;;;6.98;93.81;102700.81;5041447;28;20029;-77
2021/12/14 07:13:36;;;;;;;58.75;18.13;;;;;;;6.97;93.93;102696.41;5041308;28;20023;-76
2021/12/14 07:16:12;;;;;;;54.38;16.98;;;;;;;6.96;94.08;102705.84;5046330;28;20029;-76
2021/12/14 07:18:37;;;;;;;51.65;17.42;;;;;;;6.96;93.68;102707.56;5044015;28;20025;-76
2021/12/14 07:21:02;;;;;;;58.47;17.02;;;;;;;6.96;93.71;102710.16;5045044;28;20117;-77
2021/12/14 07:23:34;;;;;;;62.08;18.33;;;;;;;6.96;94.08;102715.34;5044843;28;20290;-76
2021/12/14 07:26:08;;;;;;;59.08;17.73;;;;;;;6.97;94.26;102722.34;5048991;28;20025;-76
2021/12/14 07:28:42;;;;;;;57.47;18.52;;;;;;;6.96;94.18;102716.22;5049427;28;20079;-76
2021/12/14 07:31:17;;;;;;;63.10;18.17;;;;;;;6.96;94.24;102724.00;5043998;28;20025;-76
2021/12/14 07:33:48;;;;;;;58.17;17.23;;;;;;;6.96;94.21;102726.59;5048495;28;20219;-77
2021/12/14 07:36:25;;;;;;;63.72;17.65;;;;;;;6.98;94.21;102737.09;5043258;28;20037;-77
2021/12/14 07:38:53;;;;;;;58.92;18.20;;;;;;;6.97;94.11;102741.34;5047699;28;20353;-76
2021/12/14 07:41:32;;;;;;;66.38;19.30;;;;;;;6.99;93.96;102735.41;5045143;28;20148;-76
2021/12/14 07:44:03;;;;;;;65.25;18.92;;;;;;;6.99;93.92;102732.81;5044444;28;20067;-76
2021/12/14 07:46:34;;;;;;;65.90;19.80;;;;;;;6.96;94.08;102734.38;5040273;28;20087;-81
2021/12/14 07:49:08;;;;;;;67.20;19.73;;;;;;;6.97;94.21;102735.28;5049489;28;20052;-81
2021/12/14 07:51:39;;;;;;;62.03;18.25;;;;;;;6.97;94.20;102743.94;5045255;28;20096;-81
2021/12/14 07:54:11;;;;;;;69.97;19.83;;;;;;;6.96;94.25;102746.44;5044978;28;20025;-82
2021/12/14 07:56:46;;;;;;;57.20;18.75;;;;;;;6.99;94.14;102750.94;5076834;28;20021;-81
2021/12/14 07:59:24;;;;;;;68.18;19.45;;;;;;;6.99;94.02;102754.41;5043765;28;20048;-81
2021/12/14 08:02:08;;;;;;;65.40;19.67;;;;;;;6.99;94.05;102767.38;5076877;28;20024;-82
2021/12/14 08:04:35;;;;;;;63.97;20.13;;;;;;;7.00;94.27;102764.00;5041553;28;20034;-81
2021/12/14 08:07:01;;;;;;;70.15;20.17;;;;;;;7.00;93.72;102757.94;5044710;28;20022;-81
2021/12/14 08:09:49;;;;;;;65.07;19.90;;;;;;;7.01;94.10;102771.00;5044880;28;20021;-81
2021/12/14 08:12:38;;;;;;;65.88;18.85;;;;;;;7.03;94.46;102773.69;5044226;28;20069;-81
2021/12/14 08:15:17;;;;;;;70.40;19.98;;;;;;;7.01;94.28;102765.81;5044305;28;20025;-81
2021/12/14 08:17:44;;;;;;;61.53;19.77;;;;;;;7.02;94.43;102764.09;5046101;28;20264;-76
2021/12/14 08:20:22;;;;;;;61.78;18.85;;;;;;;7.01;94.23;102770.06;5043898;28;20029;-76
2021/12/14 08:22:47;;;;;;;66.10;19.85;;;;;;;7.01;94.29;102760.63;5041905;28;20022;-76
2021/12/14 08:25:21;;;;;;;65.93;19.58;;;;;;;7.01;94.24;102770.06;5043757;28;20037;-76
2021/12/14 08:27:46;;;;;;;69.53;20.52;;;;;;;7.02;94.24;102766.69;5042645;28;20286;-76
2021/12/14 08:30:16;;;;;;;65.63;19.33;;;;;;;7.02;94.42;102765.00;5074644;28;20021;-77
2021/12/14 08:32:42;;;;;;;65.65;20.08;;;;;;;7.02;93.88;102770.19;5042374;28;20068;-76
2021/12/14 08:35:12;;;;;;;64.25;20.15;;;;;;;7.04;94.05;102759.91;5038758;28;20184;-76
2021/12/14 08:37:43;;;;;;;65.40;20.45;;;;;;;7.06;94.03;102772.19;5038533;28;20091;-77
2021/12/14 08:40:27;;;;;;;71.93;21.17;;;;;;;7.07;94.20;102781.78;5043696;28;20176;-76
2021/12/14 08:43:12;;;;;;;73.70;21.00;;;;;;;7.07;94.03;102776.59;5075394;28;20021;-76
2021/12/14 08:45:47;;;;;;;70.47;20.42;;;;;;;7.07;94.50;102774.00;5044199;28;20053;-76
2021/12/14 08:48:24;;;;;;;68.88;19.75;;;;;;;7.09;93.96;102780.19;5063855;28;20029;-78
2021/12/14 08:51:00;;;;;;;70.78;21.80;;;;;;;7.10;94.28;102774.22;5074493;28;20025;-76
2021/12/14 08:53:32;;;;;;;74.70;22.45;;;;;;;7.10;94.20;102779.41;5038878;28;20037;-76
2021/12/14 08:56:00;;;;;;;77.05;21.58;;;;;;;7.12;94.13;102775.19;5054247;28;20247;-76
2021/12/14 08:58:27;;;;;;;67.25;21.42;;;;;;;7.11;94.06;102781.19;5052961;28;20028;-76
2021/12/14 09:01:00;;;;;;;74.35;22.40;;;;;;;7.12;94.09;102780.38;5044388;28;20143;-76
2021/12/14 09:03:33;;;;;;;74.25;23.10;;;;;;;7.14;94.03;102780.53;5076257;28;20255;-76
2021/12/14 09:06:10;;;;;;;68.55;20.50;;;;;;;7.14;94.12;102781.41;5051648;28;20021;-76
2021/12/14 09:08:36;;;;;;;67.10;22.13;;;;;;;7.17;93.97;102785.91;5075767;28;20041;-76
2021/12/14 09:11:03;;;;;;;70.13;21.25;;;;;;;7.18;93.96;102784.22;5043508;28;20030;-76
2021/12/14 09:13:29;;;;;;;72.60;22.02;;;;;;;7.19;93.93;102786.03;5042397;28;20167;-76
2021/12/14 09:16:13;;;;;;;75.88;23.17;;;;;;;7.22;93.95;102783.63;5043196;28;20301;-76
2021/12/14 09:18:47;;;;;;;74.60;22.55;;;;;;;7.24;93.90;102789.81;5044260;28;20033;-76
2021/12/14 09:21:18;;;;;;;151.55;47.75;;;;;;;7.27;93.97;102792.59;5050098;28;20041;-76
2021/12/14 09:23:51;;;;;;;96.75;29.33;;;;;;;7.30;93.87;102792.84;5042271;28;20029;-76
2021/12/14 09:26:26;;;;;;;78.32;26.23;;;;;;;7.34;93.75;102796.53;5037989;28;20037;-76
2021/12/14 09:28:52;;;;;;;80.80;25.42;;;;;;;7.37;93.85;102796.75;5039328;28;20021;-76
2021/12/14 09:31:21;;;;;;;89.03;32.38;;;;;;;7.40;94.00;102791.75;5040916;28;20032;-76
2021/12/14 09:33:49;;;;;;;77.47;24.85;;;;;;;7.45;93.74;102795.56;5042631;28;20029;-77
2021/12/14 09:36:16;;;;;;;78.30;24.88;;;;;;;7.49;94.06;102793.28;5044130;28;20037;-76
2021/12/14 09:38:48;;;;;;;77.93;24.25;;;;;;;7.54;93.79;102795.28;5041993;28;20029;-76
2021/12/14 09:41:17;;;;;;;73.97;23.20;;;;;;;7.58;93.20;102798.19;5045105;28;20021;-78
2021/12/14 09:43:44;;;;;;;81.57;27.05;;;;;;;7.59;93.47;102794.81;5041194;28;20269;-66
2021/12/14 09:46:10;;;;;;;74.53;23.90;;;;;;;7.59;93.40;102788.69;5042741;28;20303;-66
2021/12/14 09:48:42;;;;;;;80.85;23.38;;;;;;;7.60;93.25;102793.09;5042296;28;20045;-66
2021/12/14 09:51:13;;;;;;;76.70;24.42;;;;;;;7.61;93.19;102782.81;5048130;28;20037;-66
2021/12/14 09:53:43;;;;;;;79.93;25.05;;;;;;;7.61;93.12;102779.34;5042452;28;20125;-66
2021/12/14 09:56:12;;;;;;;79.70;24.70;;;;;;;7.63;93.34;102775.16;5042041;28;20025;-66
2021/12/14 09:58:45;;;;;;;81.83;27.27;;;;;;;7.65;93.19;102768.38;5042556;28;20045;-66
2021/12/14 10:01:16;;;;;;;81.32;24.58;;;;;;;7.68;93.15;102766.00;5058008;28;20542;-66
2021/12/14 10:03:44;;;;;;;81.90;24.35;;;;;;;7.70;93.09;102772.16;5042853;28;20298;-66
2021/12/14 10:06:16;;;;;;;82.43;26.10;;;;;;;7.73;93.00;102772.38;5042619;28;20025;-66
2021/12/14 10:08:52;;;;;;;77.70;25.52;;;;;;;7.76;92.83;102777.78;5050826;28;20083;-66
2021/12/14 10:11:40;;;;;;;83.88;29.80;;;;;;;7.78;93.21;102770.97;5044942;28;20021;-66
2021/12/14 10:14:08;;;;;;;78.88;25.00;;;;;;;7.81;92.89;102768.59;5042734;28;20106;-66
2021/12/14 10:16:33;;;;;;;79.70;25.27;;;;;;;7.82;92.76;102780.78;5042844;28;20021;-66
2021/12/14 10:19:02;;;;;;;83.72;25.50;;;;;;;7.84;92.78;102780.88;5050153;28;20032;-66
2021/12/14 10:21:35;;;;;;;82.15;25.73;;;;;;;7.86;92.70;102783.56;5029545;28;20044;-66
2021/12/14 10:24:03;;;;;;;83.32;25.60;;;;;;;7.88;93.01;102776.78;5050621;28;20272;-66
2021/12/14 10:26:30;;;;;;;81.38;25.13;;;;;;;7.90;93.19;102786.47;5042473;28;20029;-66
2021/12/14 10:28:58;;;;;;;89.95;27.33;;;;;;;7.92;92.74;102786.56;5042555;28;20038;-66
2021/12/14 10:31:28;;;;;;;85.43;25.27;;;;;;;7.93;92.67;102785.78;5042616;28;20033;-66
2021/12/14 10:33:56;;;;;;;85.72;26.40;;;;;;;7.94;92.58;102788.47;5042897;28;20088;-66
2021/12/14 10:36:39;;;;;;;75.53;25.38;;;;;;;7.95;93.23;102782.47;5047880;28;20043;-66
2021/12/14 10:39:35;;;;;;;76.07;24.55;;;;;;;7.99;93.03;102793.94;5043854;28;20022;-77
2021/12/14 10:44:53;;;;;;;77.82;24.90;;;;;;;8.02;92.70;102796.75;5042338;28;20192;-77
2021/12/14 10:47:22;;;;;;;87.15;25.70;;;;;;;8.02;92.96;102794.16;5042232;28;20041;-77
2021/12/14 10:49:49;;;;;;;77.43;24.73;;;;;;;8.03;92.36;102798.56;5041561;28;20029;-77
2021/12/14 10:52:19;;;;;;;90.95;27.35;;;;;;;8.02;92.50;102794.16;5043912;28;20024;-77
2021/12/14 10:54:49;;;;;;;83.95;25.48;;;;;;;8.03;92.61;102788.16;5046379;28;20043;-77
2021/12/14 10:57:19;;;;;;;80.93;25.65;;;;;;;8.05;92.67;102790.88;5046129;28;20017;-77
2021/12/14 10:59:47;;;;;;;82.68;25.40;;;;;;;8.04;93.00;102784.78;5051469;28;20042;-77
2021/12/14 11:02:13;;;;;;;85.70;28.20;;;;;;;8.07;92.48;102779.78;5046128;28;20211;-77
2021/12/14 11:04:41;;;;;;;121.43;34.75;;;;;;;8.08;92.81;102781.59;5047414;28;20029;-77
2021/12/14 11:07:11;;;;;;;286.57;70.50;;;;;;;8.10;92.89;102777.38;5050154;28;20040;-77
2021/12/14 11:09:53;;;;;;;106.20;32.42;;;;;;;8.11;92.90;102776.59;5046098;28;20017;-77
2021/12/14 11:12:35;;;;;;;118.68;35.70;;;;;;;8.14;93.17;102784.56;5078070;28;20177;-77
2021/12/14 11:15:06;;;;;;;111.95;33.40;;;;;;;8.15;92.61;102768.22;5045844;28;20029;-77
2021/12/14 11:20:20;;;;;;;96.43;30.17;;;;;;;8.19;92.65;102770.19;5051377;28;20353;-77
2021/12/14 11:22:50;;;;;;;94.93;28.60;;;;;;;8.25;92.87;102763.59;5044569;28;20029;-77
2021/12/14 11:25:20;;;;;;;93.10;28.48;;;;;;;8.28;92.81;102766.38;5045731;28;20028;-77
2021/12/14 11:28:02;;;;;;;89.43;28.05;;;;;;;8.31;92.80;102763.97;5045805;28;20029;-77
2021/12/14 11:30:43;;;;;;;87.80;27.02;;;;;;;8.34;92.54;102753.78;5044374;28;20029;-77
2021/12/14 11:33:33;;;;;;;89.78;26.35;;;;;;;8.37;92.70;102753.97;5042531;28;20033;-77
2021/12/14 11:35:59;;;;;;;91.90;29.35;;;;;;;8.39;92.43;102752.38;5051607;28;20289;-77
2021/12/14 11:38:42;;;;;;;89.82;28.48;;;;;;;8.41;92.29;102745.56;5044062;28;20172;-77
2021/12/14 11:41:22;;;;;;;90.00;27.15;;;;;;;8.44;92.51;102756.19;5042129;28;20032;-77
2021/12/14 11:43:56;;;;;;;94.40;27.63;;;;;;;8.45;92.27;102747.59;5044872;28;20036;-77
2021/12/14 11:46:23;;;;;;;88.40;27.58;;;;;;;8.46;92.18;102744.22;5044529;28;20045;-77
2021/12/14 11:48:48;;;;;;;93.82;27.85;;;;;;;8.47;92.18;102746.03;5044071;28;20089;-77
2021/12/14 11:51:14;;;;;;;90.10;28.75;;;;;;;8.49;92.02;102744.41;5044090;28;20079;-77
2021/12/14 11:53:47;;;;;;;99.18;29.40;;;;;;;8.50;91.93;102751.41;5047189;28;20260;-77
2021/12/14 11:56:23;;;;;;;94.38;30.70;;;;;;;8.52;92.20;102749.78;5044937;28;20065;-77
2021/12/14 11:58:54;;;;;;;104.97;32.45;;;;;;;8.55;92.28;102758.59;5037833;28;20018;-77
2021/12/14 12:01:28;;;;;;;97.40;29.45;;;;;;;8.56;92.45;102749.97;5057864;28;20287;-77
2021/12/14 12:03:57;;;;;;;96.10;29.75;;;;;;;8.55;92.04;102743.91;5044273;28;20067;-77
2021/12/14 12:09:28;;;;;;;98.40;29.37;;;;;;;8.57;92.02;102751.78;5044405;28;20286;-77
2021/12/14 12:12:03;;;;;;;96.68;28.73;;;;;;;8.56;92.08;102756.09;5045614;28;20161;-77
2021/12/14 12:14:49;;;;;;;114.28;35.55;;;;;;;8.57;92.01;102756.97;5044609;28;20021;-77
2021/12/14 12:17:25;;;;;;;94.03;28.77;;;;;;;8.56;91.62;102755.16;5033363;28;20032;-77